KMWL/MWL METAR and TAF weather

Enter ICAO airport designator
Station Type Date Time Source
KMWL METAR 2020/07/03 12:53 UTC NOAA

KMWL 031253Z AUTO 14004KT 10SM CLR 24/21 A3000 RMK AO2 SLP144 T02440211


Station Type Date Time Source
KMWL Decoded METAR 2020/07/03 12:53 UTC NOAA

MINERAL WELLS AIRPORT, TX, United States (KMWL) 32-47N 098-04W 284M
Jul 03, 2020 - 08:53 AM EDT / 2020.07.03 1253 UTC
Wind: from the SE (140 degrees) at 5 MPH (4 KT):0
Visibility: 10 mile(s):0
Sky conditions: clear
Temperature: 75.9 F (24.4 C)
Dew Point: 70.0 F (21.1 C)
Relative Humidity: 81%
Pressure (altimeter): 30 in. Hg (1015 hPa)
ob: KMWL 031253Z AUTO 14004KT 10SM CLR 24/21 A3000 RMK AO2 SLP144 T02440211
cycle: 13

Station Type Date Time Source
KMWL TAF UTC NOAA

Error!

Example: see airport list